sensor_id;sensor_type;location;lat;lon;timestamp;P1;durP1;ratioP1;P2;durP2;ratioP2
26201;SDS011;13944;28.562;77.188;2023-03-23T00:00:20;186.23;;;86.20;;
26201;SDS011;13944;28.562;77.188;2023-03-23T00:02:46;192.67;;;84.53;;
26201;SDS011;13944;28.562;77.188;2023-03-23T00:05:13;186.73;;;84.50;;
26201;SDS011;13944;28.562;77.188;2023-03-23T00:07:39;180.60;;;82.97;;
26201;SDS011;13944;28.562;77.188;2023-03-23T00:10:10;190.10;;;86.57;;
26201;SDS011;13944;28.562;77.188;2023-03-23T00:12:36;184.50;;;83.73;;
26201;SDS011;13944;28.562;77.188;2023-03-23T00:15:07;174.00;;;81.83;;
26201;SDS011;13944;28.562;77.188;2023-03-23T00:17:38;184.10;;;83.97;;
26201;SDS011;13944;28.562;77.188;2023-03-23T00:20:08;194.40;;;90.40;;
26201;SDS011;13944;28.562;77.188;2023-03-23T00:22:37;201.00;;;93.03;;
26201;SDS011;13944;28.562;77.188;2023-03-23T00:25:06;208.93;;;90.97;;
26201;SDS011;13944;28.562;77.188;2023-03-23T00:27:33;200.53;;;89.40;;
26201;SDS011;13944;28.562;77.188;2023-03-23T00:30:03;190.67;;;86.27;;
26201;SDS011;13944;28.562;77.188;2023-03-23T00:32:30;209.50;;;91.07;;
26201;SDS011;13944;28.562;77.188;2023-03-23T00:34:57;191.53;;;88.57;;
26201;SDS011;13944;28.562;77.188;2023-03-23T00:37:24;183.70;;;86.37;;
26201;SDS011;13944;28.562;77.188;2023-03-23T00:39:51;199.57;;;87.03;;
26201;SDS011;13944;28.562;77.188;2023-03-23T00:42:22;182.97;;;86.13;;
26201;SDS011;13944;28.562;77.188;2023-03-23T00:44:48;197.67;;;89.33;;
26201;SDS011;13944;28.562;77.188;2023-03-23T00:47:15;209.30;;;88.17;;
26201;SDS011;13944;28.562;77.188;2023-03-23T00:49:42;226.63;;;89.57;;
26201;SDS011;13944;28.562;77.188;2023-03-23T00:52:09;206.87;;;89.20;;
26201;SDS011;13944;28.562;77.188;2023-03-23T00:54:37;202.80;;;89.57;;
26201;SDS011;13944;28.562;77.188;2023-03-23T00:57:04;201.70;;;88.10;;
26201;SDS011;13944;28.562;77.188;2023-03-23T00:59:31;197.07;;;89.23;;
26201;SDS011;13944;28.562;77.188;2023-03-23T01:01:58;188.97;;;88.70;;
26201;SDS011;13944;28.562;77.188;2023-03-23T01:04:24;192.17;;;88.47;;
26201;SDS011;13944;28.562;77.188;2023-03-23T01:06:53;196.47;;;90.00;;
26201;SDS011;13944;28.562;77.188;2023-03-23T01:09:21;201.43;;;92.30;;
26201;SDS011;13944;28.562;77.188;2023-03-23T01:11:48;194.27;;;91.10;;
26201;SDS011;13944;28.562;77.188;2023-03-23T01:14:16;200.07;;;95.10;;
26201;SDS011;13944;28.562;77.188;2023-03-23T01:16:43;213.80;;;97.93;;
26201;SDS011;13944;28.562;77.188;2023-03-23T01:19:10;228.83;;;102.50;;
26201;SDS011;13944;28.562;77.188;2023-03-23T01:21:36;215.23;;;102.63;;
26201;SDS011;13944;28.562;77.188;2023-03-23T01:24:03;209.17;;;104.60;;
26201;SDS011;13944;28.562;77.188;2023-03-23T01:26:30;220.67;;;105.67;;
26201;SDS011;13944;28.562;77.188;2023-03-23T01:29:00;211.03;;;101.63;;
26201;SDS011;13944;28.562;77.188;2023-03-23T01:31:26;228.30;;;104.07;;
26201;SDS011;13944;28.562;77.188;2023-03-23T01:33:53;237.80;;;114.03;;
26201;SDS011;13944;28.562;77.188;2023-03-23T01:36:24;224.27;;;105.50;;
26201;SDS011;13944;28.562;77.188;2023-03-23T01:38:54;222.27;;;105.30;;
26201;SDS011;13944;28.562;77.188;2023-03-23T01:41:23;233.40;;;115.95;;
26201;SDS011;13944;28.562;77.188;2023-03-23T01:43:57;220.83;;;109.57;;
26201;SDS011;13944;28.562;77.188;2023-03-23T01:46:28;245.73;;;108.90;;
26201;SDS011;13944;28.562;77.188;2023-03-23T01:48:56;234.40;;;109.67;;
26201;SDS011;13944;28.562;77.188;2023-03-23T01:51:24;248.07;;;114.60;;
26201;SDS011;13944;28.562;77.188;2023-03-23T01:53:56;252.07;;;111.57;;
26201;SDS011;13944;28.562;77.188;2023-03-23T01:56:24;266.67;;;112.80;;
26201;SDS011;13944;28.562;77.188;2023-03-23T01:58:52;247.90;;;112.93;;
26201;SDS011;13944;28.562;77.188;2023-03-23T02:01:20;263.77;;;118.60;;
26201;SDS011;13944;28.562;77.188;2023-03-23T02:03:47;249.73;;;114.93;;
26201;SDS011;13944;28.562;77.188;2023-03-23T02:06:14;285.20;;;123.07;;
26201;SDS011;13944;28.562;77.188;2023-03-23T02:08:41;304.73;;;129.07;;
26201;SDS011;13944;28.562;77.188;2023-03-23T02:11:13;290.50;;;126.17;;
26201;SDS011;13944;28.562;77.188;2023-03-23T02:13:40;309.80;;;131.40;;
26201;SDS011;13944;28.562;77.188;2023-03-23T02:27:01;288.50;;;125.70;;
26201;SDS011;13944;28.562;77.188;2023-03-23T02:32:03;245.67;;;117.40;;
26201;SDS011;13944;28.562;77.188;2023-03-23T02:34:32;236.70;;;106.40;;
26201;SDS011;13944;28.562;77.188;2023-03-23T02:37:01;227.57;;;109.43;;
26201;SDS011;13944;28.562;77.188;2023-03-23T02:39:40;209.77;;;100.67;;
26201;SDS011;13944;28.562;77.188;2023-03-23T02:42:09;197.87;;;97.53;;
26201;SDS011;13944;28.562;77.188;2023-03-23T02:44:37;189.63;;;93.00;;
26201;SDS011;13944;28.562;77.188;2023-03-23T02:47:07;181.40;;;89.27;;
26201;SDS011;13944;28.562;77.188;2023-03-23T02:49:34;180.03;;;87.57;;
26201;SDS011;13944;28.562;77.188;2023-03-23T02:52:10;177.93;;;87.43;;
26201;SDS011;13944;28.562;77.188;2023-03-23T02:54:40;164.73;;;89.05;;
26201;SDS011;13944;28.562;77.188;2023-03-23T02:57:08;156.50;;;83.57;;
26201;SDS011;13944;28.562;77.188;2023-03-23T02:59:34;136.90;;;74.30;;
26201;SDS011;13944;28.562;77.188;2023-03-23T03:02:43;119.47;;;65.27;;
26201;SDS011;13944;28.562;77.188;2023-03-23T03:05:06;103.67;;;59.53;;
26201;SDS011;13944;28.562;77.188;2023-03-23T03:10:09;93.47;;;52.97;;
26201;SDS011;13944;28.562;77.188;2023-03-23T03:17:49;79.10;;;49.20;;
26201;SDS011;13944;28.562;77.188;2023-03-23T03:20:17;72.60;;;46.55;;
26201;SDS011;13944;28.562;77.188;2023-03-23T03:22:44;74.68;;;49.20;;
26201;SDS011;13944;28.562;77.188;2023-03-23T03:25:13;70.75;;;47.60;;
26201;SDS011;13944;28.562;77.188;2023-03-23T03:27:43;70.75;;;45.65;;
26201;SDS011;13944;28.562;77.188;2023-03-23T03:30:12;69.68;;;44.50;;
26201;SDS011;13944;28.562;77.188;2023-03-23T03:32:44;80.95;;;48.20;;
26201;SDS011;13944;28.562;77.188;2023-03-23T03:35:14;75.55;;;48.72;;
26201;SDS011;13944;28.562;77.188;2023-03-23T03:37:41;72.63;;;45.80;;
26201;SDS011;13944;28.562;77.188;2023-03-23T03:40:09;74.03;;;48.00;;
26201;SDS011;13944;28.562;77.188;2023-03-23T03:42:40;85.72;;;50.40;;
26201;SDS011;13944;28.562;77.188;2023-03-23T03:45:07;78.63;;;45.08;;
26201;SDS011;13944;28.562;77.188;2023-03-23T03:47:34;78.15;;;47.40;;
26201;SDS011;13944;28.562;77.188;2023-03-23T03:50:01;63.10;;;41.10;;
26201;SDS011;13944;28.562;77.188;2023-03-23T03:52:28;66.40;;;42.87;;
26201;SDS011;13944;28.562;77.188;2023-03-23T03:54:54;63.97;;;40.25;;
26201;SDS011;13944;28.562;77.188;2023-03-23T03:57:21;62.13;;;41.17;;
26201;SDS011;13944;28.562;77.188;2023-03-23T03:59:48;60.42;;;40.75;;
26201;SDS011;13944;28.562;77.188;2023-03-23T04:02:14;57.60;;;38.03;;
26201;SDS011;13944;28.562;77.188;2023-03-23T04:04:45;52.20;;;38.70;;
26201;SDS011;13944;28.562;77.188;2023-03-23T04:07:12;61.53;;;41.28;;
26201;SDS011;13944;28.562;77.188;2023-03-23T04:09:42;60.97;;;41.65;;
26201;SDS011;13944;28.562;77.188;2023-03-23T04:12:11;54.60;;;38.70;;
26201;SDS011;13944;28.562;77.188;2023-03-23T04:14:37;51.05;;;36.78;;
26201;SDS011;13944;28.562;77.188;2023-03-23T04:17:04;50.97;;;37.20;;
26201;SDS011;13944;28.562;77.188;2023-03-23T04:19:32;53.20;;;36.70;;
26201;SDS011;13944;28.562;77.188;2023-03-23T04:21:59;52.60;;;36.28;;
26201;SDS011;13944;28.562;77.188;2023-03-23T04:24:26;54.30;;;39.40;;
26201;SDS011;13944;28.562;77.188;2023-03-23T04:26:56;56.88;;;38.67;;
26201;SDS011;13944;28.562;77.188;2023-03-23T04:29:23;47.35;;;33.75;;
26201;SDS011;13944;28.562;77.188;2023-03-23T04:31:49;56.20;;;38.95;;
26201;SDS011;13944;28.562;77.188;2023-03-23T04:34:18;52.35;;;38.17;;
26201;SDS011;13944;28.562;77.188;2023-03-23T04:36:44;53.47;;;38.20;;
26201;SDS011;13944;28.562;77.188;2023-03-23T04:39:14;61.38;;;41.20;;
26201;SDS011;13944;28.562;77.188;2023-03-23T04:41:41;53.67;;;39.13;;
26201;SDS011;13944;28.562;77.188;2023-03-23T04:44:09;54.28;;;38.00;;
26201;SDS011;13944;28.562;77.188;2023-03-23T04:46:36;60.33;;;39.78;;
26201;SDS011;13944;28.562;77.188;2023-03-23T04:49:04;57.55;;;40.33;;
26201;SDS011;13944;28.562;77.188;2023-03-23T04:51:30;60.80;;;39.72;;
26201;SDS011;13944;28.562;77.188;2023-03-23T04:53:57;58.78;;;39.10;;
26201;SDS011;13944;28.562;77.188;2023-03-23T04:56:23;54.33;;;36.40;;
26201;SDS011;13944;28.562;77.188;2023-03-23T04:58:50;54.67;;;36.97;;
26201;SDS011;13944;28.562;77.188;2023-03-23T05:01:16;51.93;;;37.63;;
26201;SDS011;13944;28.562;77.188;2023-03-23T05:03:43;70.90;;;46.15;;
26201;SDS011;13944;28.562;77.188;2023-03-23T05:06:10;58.00;;;39.03;;
26201;SDS011;13944;28.562;77.188;2023-03-23T05:08:36;60.00;;;41.10;;
26201;SDS011;13944;28.562;77.188;2023-03-23T05:11:06;55.45;;;39.70;;
26201;SDS011;13944;28.562;77.188;2023-03-23T05:13:33;50.35;;;35.85;;
26201;SDS011;13944;28.562;77.188;2023-03-23T05:16:03;46.72;;;32.97;;
26201;SDS011;13944;28.562;77.188;2023-03-23T05:18:30;47.97;;;31.13;;
26201;SDS011;13944;28.562;77.188;2023-03-23T05:21:01;42.47;;;30.70;;
26201;SDS011;13944;28.562;77.188;2023-03-23T05:23:28;41.67;;;30.20;;
26201;SDS011;13944;28.562;77.188;2023-03-23T05:25:56;41.15;;;28.55;;
26201;SDS011;13944;28.562;77.188;2023-03-23T05:28:26;38.72;;;27.38;;
26201;SDS011;13944;28.562;77.188;2023-03-23T05:30:53;38.65;;;27.48;;
26201;SDS011;13944;28.562;77.188;2023-03-23T05:33:21;40.40;;;27.30;;
26201;SDS011;13944;28.562;77.188;2023-03-23T05:35:48;44.58;;;31.52;;
26201;SDS011;13944;28.562;77.188;2023-03-23T05:38:15;46.40;;;30.30;;
26201;SDS011;13944;28.562;77.188;2023-03-23T05:40:41;38.00;;;25.33;;
26201;SDS011;13944;28.562;77.188;2023-03-23T05:43:08;36.75;;;23.60;;
26201;SDS011;13944;28.562;77.188;2023-03-23T05:45:35;44.78;;;26.52;;
26201;SDS011;13944;28.562;77.188;2023-03-23T05:48:02;43.85;;;28.35;;
26201;SDS011;13944;28.562;77.188;2023-03-23T05:50:29;45.80;;;29.93;;
26201;SDS011;13944;28.562;77.188;2023-03-23T05:52:55;44.72;;;29.63;;
26201;SDS011;13944;28.562;77.188;2023-03-23T05:55:22;41.33;;;28.85;;
26201;SDS011;13944;28.562;77.188;2023-03-23T05:57:49;45.63;;;27.63;;
26201;SDS011;13944;28.562;77.188;2023-03-23T06:00:15;34.33;;;24.60;;
26201;SDS011;13944;28.562;77.188;2023-03-23T06:02:48;45.80;;;25.33;;
26201;SDS011;13944;28.562;77.188;2023-03-23T06:05:16;30.00;;;19.85;;
26201;SDS011;13944;28.562;77.188;2023-03-23T06:07:43;32.88;;;22.10;;
26201;SDS011;13944;28.562;77.188;2023-03-23T06:10:10;42.08;;;27.70;;
26201;SDS011;13944;28.562;77.188;2023-03-23T06:12:37;46.53;;;28.65;;
26201;SDS011;13944;28.562;77.188;2023-03-23T06:15:04;42.35;;;27.30;;
26201;SDS011;13944;28.562;77.188;2023-03-23T06:17:32;43.25;;;27.95;;
26201;SDS011;13944;28.562;77.188;2023-03-23T06:19:59;40.25;;;27.38;;
26201;SDS011;13944;28.562;77.188;2023-03-23T06:22:25;37.63;;;25.90;;
26201;SDS011;13944;28.562;77.188;2023-03-23T06:24:52;38.95;;;25.52;;
26201;SDS011;13944;28.562;77.188;2023-03-23T06:27:18;36.42;;;23.52;;
26201;SDS011;13944;28.562;77.188;2023-03-23T06:29:45;36.75;;;24.42;;
26201;SDS011;13944;28.562;77.188;2023-03-23T06:32:11;38.60;;;24.55;;
26201;SDS011;13944;28.562;77.188;2023-03-23T06:34:39;35.38;;;23.17;;
26201;SDS011;13944;28.562;77.188;2023-03-23T06:37:08;39.08;;;24.92;;
26201;SDS011;13944;28.562;77.188;2023-03-23T06:39:35;35.83;;;23.85;;
26201;SDS011;13944;28.562;77.188;2023-03-23T06:42:03;34.15;;;22.38;;
26201;SDS011;13944;28.562;77.188;2023-03-23T06:44:30;40.40;;;24.00;;
26201;SDS011;13944;28.562;77.188;2023-03-23T06:46:57;40.28;;;24.60;;
26201;SDS011;13944;28.562;77.188;2023-03-23T06:49:24;36.25;;;25.80;;
26201;SDS011;13944;28.562;77.188;2023-03-23T06:51:50;40.67;;;26.70;;
26201;SDS011;13944;28.562;77.188;2023-03-23T06:54:17;39.15;;;24.40;;
26201;SDS011;13944;28.562;77.188;2023-03-23T06:56:43;33.03;;;20.88;;
26201;SDS011;13944;28.562;77.188;2023-03-23T06:59:10;32.40;;;17.70;;
26201;SDS011;13944;28.562;77.188;2023-03-23T07:01:37;24.30;;;16.02;;
26201;SDS011;13944;28.562;77.188;2023-03-23T07:04:04;27.42;;;17.23;;
26201;SDS011;13944;28.562;77.188;2023-03-23T07:06:31;26.95;;;18.90;;
26201;SDS011;13944;28.562;77.188;2023-03-23T07:08:58;29.52;;;18.20;;
26201;SDS011;13944;28.562;77.188;2023-03-23T07:11:24;34.10;;;22.67;;
26201;SDS011;13944;28.562;77.188;2023-03-23T07:13:51;37.65;;;21.52;;
26201;SDS011;13944;28.562;77.188;2023-03-23T07:16:18;37.30;;;23.33;;
26201;SDS011;13944;28.562;77.188;2023-03-23T07:18:45;34.90;;;21.63;;
26201;SDS011;13944;28.562;77.188;2023-03-23T07:21:12;28.95;;;19.38;;
26201;SDS011;13944;28.562;77.188;2023-03-23T07:23:38;33.78;;;21.10;;
26201;SDS011;13944;28.562;77.188;2023-03-23T07:26:05;29.50;;;18.80;;
26201;SDS011;13944;28.562;77.188;2023-03-23T07:28:32;29.25;;;18.08;;
26201;SDS011;13944;28.562;77.188;2023-03-23T07:30:59;31.83;;;19.13;;
26201;SDS011;13944;28.562;77.188;2023-03-23T07:33:25;30.75;;;21.00;;
26201;SDS011;13944;28.562;77.188;2023-03-23T07:35:52;27.65;;;17.65;;
26201;SDS011;13944;28.562;77.188;2023-03-23T07:38:18;26.30;;;16.13;;
26201;SDS011;13944;28.562;77.188;2023-03-23T07:40:45;25.70;;;16.67;;
26201;SDS011;13944;28.562;77.188;2023-03-23T07:43:12;28.55;;;17.15;;
26201;SDS011;13944;28.562;77.188;2023-03-23T07:45:39;28.38;;;17.20;;
26201;SDS011;13944;28.562;77.188;2023-03-23T07:48:05;31.00;;;19.20;;
26201;SDS011;13944;28.562;77.188;2023-03-23T07:50:32;31.75;;;20.25;;
26201;SDS011;13944;28.562;77.188;2023-03-23T07:53:00;31.83;;;21.70;;
26201;SDS011;13944;28.562;77.188;2023-03-23T07:55:27;36.83;;;21.63;;
26201;SDS011;13944;28.562;77.188;2023-03-23T07:57:54;34.95;;;22.20;;
26201;SDS011;13944;28.562;77.188;2023-03-23T08:00:21;31.10;;;20.75;;
26201;SDS011;13944;28.562;77.188;2023-03-23T08:02:53;28.30;;;20.15;;
26201;SDS011;13944;28.562;77.188;2023-03-23T08:05:23;30.77;;;18.73;;
26201;SDS011;13944;28.562;77.188;2023-03-23T08:07:51;27.27;;;17.40;;
26201;SDS011;13944;28.562;77.188;2023-03-23T08:10:20;26.67;;;18.52;;
26201;SDS011;13944;28.562;77.188;2023-03-23T08:12:53;32.10;;;21.63;;
26201;SDS011;13944;28.562;77.188;2023-03-23T08:15:21;34.35;;;22.40;;
26201;SDS011;13944;28.562;77.188;2023-03-23T08:17:49;34.60;;;22.17;;
26201;SDS011;13944;28.562;77.188;2023-03-23T08:20:17;32.03;;;21.33;;
26201;SDS011;13944;28.562;77.188;2023-03-23T08:22:53;28.73;;;20.45;;
26201;SDS011;13944;28.562;77.188;2023-03-23T08:25:20;28.35;;;18.90;;
26201;SDS011;13944;28.562;77.188;2023-03-23T08:27:48;27.70;;;18.83;;
26201;SDS011;13944;28.562;77.188;2023-03-23T08:30:17;31.50;;;19.42;;
26201;SDS011;13944;28.562;77.188;2023-03-23T08:32:44;33.13;;;19.38;;
26201;SDS011;13944;28.562;77.188;2023-03-23T08:35:12;30.98;;;19.98;;
26201;SDS011;13944;28.562;77.188;2023-03-23T08:37:39;31.60;;;19.27;;
26201;SDS011;13944;28.562;77.188;2023-03-23T08:40:07;25.17;;;18.38;;
26201;SDS011;13944;28.562;77.188;2023-03-23T08:42:36;30.23;;;19.05;;
26201;SDS011;13944;28.562;77.188;2023-03-23T08:45:04;31.27;;;19.10;;
26201;SDS011;13944;28.562;77.188;2023-03-23T08:47:30;32.20;;;20.65;;
26201;SDS011;13944;28.562;77.188;2023-03-23T08:49:57;33.58;;;21.40;;
26201;SDS011;13944;28.562;77.188;2023-03-23T08:52:24;28.98;;;19.77;;
26201;SDS011;13944;28.562;77.188;2023-03-23T08:54:50;27.33;;;18.52;;
26201;SDS011;13944;28.562;77.188;2023-03-23T08:57:17;28.70;;;19.20;;
26201;SDS011;13944;28.562;77.188;2023-03-23T08:59:43;27.23;;;18.92;;
26201;SDS011;13944;28.562;77.188;2023-03-23T09:02:10;29.88;;;18.00;;
26201;SDS011;13944;28.562;77.188;2023-03-23T09:04:38;28.92;;;18.67;;
26201;SDS011;13944;28.562;77.188;2023-03-23T09:07:05;28.02;;;18.30;;
26201;SDS011;13944;28.562;77.188;2023-03-23T09:09:32;35.33;;;19.90;;
26201;SDS011;13944;28.562;77.188;2023-03-23T09:11:59;27.85;;;16.60;;
26201;SDS011;13944;28.562;77.188;2023-03-23T09:14:26;29.40;;;18.27;;
26201;SDS011;13944;28.562;77.188;2023-03-23T09:16:52;33.58;;;18.33;;
26201;SDS011;13944;28.562;77.188;2023-03-23T09:19:19;36.03;;;18.13;;
26201;SDS011;13944;28.562;77.188;2023-03-23T09:21:46;31.35;;;17.92;;
26201;SDS011;13944;28.562;77.188;2023-03-23T09:24:12;28.08;;;17.08;;
26201;SDS011;13944;28.562;77.188;2023-03-23T09:26:39;28.23;;;16.05;;
26201;SDS011;13944;28.562;77.188;2023-03-23T09:29:06;27.13;;;16.73;;
26201;SDS011;13944;28.562;77.188;2023-03-23T09:31:33;28.73;;;17.02;;
26201;SDS011;13944;28.562;77.188;2023-03-23T09:34:02;24.50;;;14.63;;
26201;SDS011;13944;28.562;77.188;2023-03-23T09:36:29;27.15;;;14.77;;
26201;SDS011;13944;28.562;77.188;2023-03-23T09:38:57;24.40;;;14.98;;
26201;SDS011;13944;28.562;77.188;2023-03-23T09:41:34;29.98;;;15.20;;
26201;SDS011;13944;28.562;77.188;2023-03-23T09:44:06;22.90;;;13.57;;
26201;SDS011;13944;28.562;77.188;2023-03-23T09:49:01;30.50;;;15.88;;
26201;SDS011;13944;28.562;77.188;2023-03-23T09:54:36;25.10;;;14.20;;
26201;SDS011;13944;28.562;77.188;2023-03-23T09:57:04;21.08;;;12.02;;
26201;SDS011;13944;28.562;77.188;2023-03-23T09:59:36;19.63;;;11.73;;
26201;SDS011;13944;28.562;77.188;2023-03-23T10:02:27;21.55;;;12.65;;
26201;SDS011;13944;28.562;77.188;2023-03-23T10:04:51;22.58;;;12.10;;
26201;SDS011;13944;28.562;77.188;2023-03-23T10:07:19;17.88;;;10.77;;
26201;SDS011;13944;28.562;77.188;2023-03-23T10:09:47;17.98;;;11.05;;
26201;SDS011;13944;28.562;77.188;2023-03-23T10:17:18;18.20;;;11.90;;
26201;SDS011;13944;28.562;77.188;2023-03-23T10:22:17;21.88;;;12.63;;
26201;SDS011;13944;28.562;77.188;2023-03-23T10:27:19;20.58;;;12.05;;
26201;SDS011;13944;28.562;77.188;2023-03-23T10:29:50;21.27;;;12.57;;
26201;SDS011;13944;28.562;77.188;2023-03-23T10:32:36;23.00;;;12.90;;
26201;SDS011;13944;28.562;77.188;2023-03-23T10:35:05;23.90;;;12.73;;
26201;SDS011;13944;28.562;77.188;2023-03-23T10:37:34;21.00;;;13.15;;
26201;SDS011;13944;28.562;77.188;2023-03-23T10:40:03;23.35;;;14.23;;
26201;SDS011;13944;28.562;77.188;2023-03-23T10:42:36;20.88;;;11.90;;
26201;SDS011;13944;28.562;77.188;2023-03-23T10:47:39;18.73;;;11.45;;
26201;SDS011;13944;28.562;77.188;2023-03-23T10:50:13;24.60;;;12.82;;
26201;SDS011;13944;28.562;77.188;2023-03-23T10:52:43;26.05;;;12.70;;
26201;SDS011;13944;28.562;77.188;2023-03-23T10:55:11;23.25;;;11.50;;
26201;SDS011;13944;28.562;77.188;2023-03-23T10:57:41;20.67;;;12.60;;
26201;SDS011;13944;28.562;77.188;2023-03-23T11:00:17;20.58;;;11.38;;
26201;SDS011;13944;28.562;77.188;2023-03-23T11:02:45;23.73;;;11.13;;
26201;SDS011;13944;28.562;77.188;2023-03-23T11:05:19;24.27;;;11.18;;
26201;SDS011;13944;28.562;77.188;2023-03-23T11:07:56;25.30;;;11.20;;
26201;SDS011;13944;28.562;77.188;2023-03-23T11:10:27;16.15;;;9.55;;
26201;SDS011;13944;28.562;77.188;2023-03-23T11:12:58;19.33;;;10.27;;
26201;SDS011;13944;28.562;77.188;2023-03-23T11:15:33;18.10;;;10.30;;
26201;SDS011;13944;28.562;77.188;2023-03-23T11:18:12;20.90;;;11.60;;
26201;SDS011;13944;28.562;77.188;2023-03-23T11:20:43;20.83;;;8.57;;
26201;SDS011;13944;28.562;77.188;2023-03-23T11:23:11;20.88;;;10.73;;
26201;SDS011;13944;28.562;77.188;2023-03-23T11:25:55;25.35;;;10.65;;
26201;SDS011;13944;28.562;77.188;2023-03-23T11:28:25;19.67;;;10.20;;
26201;SDS011;13944;28.562;77.188;2023-03-23T11:30:53;22.58;;;10.65;;
26201;SDS011;13944;28.562;77.188;2023-03-23T11:33:21;26.80;;;12.25;;
26201;SDS011;13944;28.562;77.188;2023-03-23T11:35:50;26.83;;;11.57;;
26201;SDS011;13944;28.562;77.188;2023-03-23T11:38:19;28.33;;;11.48;;
26201;SDS011;13944;28.562;77.188;2023-03-23T11:40:50;19.08;;;9.65;;
26201;SDS011;13944;28.562;77.188;2023-03-23T11:43:24;21.08;;;10.02;;
26201;SDS011;13944;28.562;77.188;2023-03-23T11:45:59;20.00;;;9.68;;
26201;SDS011;13944;28.562;77.188;2023-03-23T11:48:50;19.17;;;10.32;;
26201;SDS011;13944;28.562;77.188;2023-03-23T11:51:32;24.20;;;11.20;;
26201;SDS011;13944;28.562;77.188;2023-03-23T11:54:12;20.45;;;10.73;;
26201;SDS011;13944;28.562;77.188;2023-03-23T11:56:43;18.33;;;8.82;;
26201;SDS011;13944;28.562;77.188;2023-03-23T11:59:15;23.98;;;11.63;;
26201;SDS011;13944;28.562;77.188;2023-03-23T12:23:25;22.83;;;10.60;;
26201;SDS011;13944;28.562;77.188;2023-03-23T12:30:40;26.50;;;12.20;;
26201;SDS011;13944;28.562;77.188;2023-03-23T12:35:59;24.23;;;11.43;;
26201;SDS011;13944;28.562;77.188;2023-03-23T12:41:20;23.20;;;9.45;;
26201;SDS011;13944;28.562;77.188;2023-03-23T12:44:05;24.33;;;9.70;;
26201;SDS011;13944;28.562;77.188;2023-03-23T12:47:21;30.25;;;11.63;;
26201;SDS011;13944;28.562;77.188;2023-03-23T12:52:35;31.75;;;11.57;;
26201;SDS011;13944;28.562;77.188;2023-03-23T12:57:46;21.92;;;11.18;;
26201;SDS011;13944;28.562;77.188;2023-03-23T13:00:12;32.83;;;12.32;;
26201;SDS011;13944;28.562;77.188;2023-03-23T13:10:22;37.33;;;17.60;;
26201;SDS011;13944;28.562;77.188;2023-03-23T13:12:49;39.08;;;18.73;;
26201;SDS011;13944;28.562;77.188;2023-03-23T13:18:02;39.70;;;17.40;;
26201;SDS011;13944;28.562;77.188;2023-03-23T13:27:58;31.73;;;19.23;;
26201;SDS011;13944;28.562;77.188;2023-03-23T13:30:26;34.03;;;19.02;;
26201;SDS011;13944;28.562;77.188;2023-03-23T13:33:01;38.65;;;19.75;;
26201;SDS011;13944;28.562;77.188;2023-03-23T13:35:33;47.13;;;21.92;;
26201;SDS011;13944;28.562;77.188;2023-03-23T13:38:00;47.05;;;21.50;;
26201;SDS011;13944;28.562;77.188;2023-03-23T13:40:28;55.88;;;22.67;;
26201;SDS011;13944;28.562;77.188;2023-03-23T13:42:57;54.85;;;24.70;;
26201;SDS011;13944;28.562;77.188;2023-03-23T13:45:36;67.57;;;24.77;;
26201;SDS011;13944;28.562;77.188;2023-03-23T13:48:39;48.15;;;23.55;;
26201;SDS011;13944;28.562;77.188;2023-03-23T13:50:57;62.80;;;25.15;;
26201;SDS011;13944;28.562;77.188;2023-03-23T13:53:29;62.17;;;26.48;;
26201;SDS011;13944;28.562;77.188;2023-03-23T13:58:30;65.00;;;28.23;;
26201;SDS011;13944;28.562;77.188;2023-03-23T14:01:14;63.88;;;29.95;;
26201;SDS011;13944;28.562;77.188;2023-03-23T14:03:48;74.70;;;32.00;;
26201;SDS011;13944;28.562;77.188;2023-03-23T14:06:19;101.85;;;36.42;;
26201;SDS011;13944;28.562;77.188;2023-03-23T14:08:53;72.00;;;34.70;;
26201;SDS011;13944;28.562;77.188;2023-03-23T14:11:25;93.63;;;45.10;;
26201;SDS011;13944;28.562;77.188;2023-03-23T14:18:59;74.32;;;38.45;;
26201;SDS011;13944;28.562;77.188;2023-03-23T14:21:39;89.35;;;43.38;;
26201;SDS011;13944;28.562;77.188;2023-03-23T14:24:09;94.88;;;48.90;;
26201;SDS011;13944;28.562;77.188;2023-03-23T14:26:36;87.68;;;47.92;;
26201;SDS011;13944;28.562;77.188;2023-03-23T14:29:03;91.37;;;48.83;;
26201;SDS011;13944;28.562;77.188;2023-03-23T14:31:30;93.75;;;47.47;;
26201;SDS011;13944;28.562;77.188;2023-03-23T14:34:02;84.05;;;44.47;;
26201;SDS011;13944;28.562;77.188;2023-03-23T14:36:30;81.93;;;45.63;;
26201;SDS011;13944;28.562;77.188;2023-03-23T14:39:07;87.97;;;44.53;;
26201;SDS011;13944;28.562;77.188;2023-03-23T14:41:38;85.65;;;44.58;;
26201;SDS011;13944;28.562;77.188;2023-03-23T14:44:06;86.80;;;44.63;;
26201;SDS011;13944;28.562;77.188;2023-03-23T14:46:33;92.53;;;45.15;;
26201;SDS011;13944;28.562;77.188;2023-03-23T14:49:00;87.80;;;44.45;;
26201;SDS011;13944;28.562;77.188;2023-03-23T14:51:28;89.65;;;43.72;;
26201;SDS011;13944;28.562;77.188;2023-03-23T14:53:54;87.32;;;45.30;;
26201;SDS011;13944;28.562;77.188;2023-03-23T14:56:22;77.68;;;41.22;;
26201;SDS011;13944;28.562;77.188;2023-03-23T14:58:53;74.40;;;42.33;;
26201;SDS011;13944;28.562;77.188;2023-03-23T15:01:24;75.20;;;41.72;;
26201;SDS011;13944;28.562;77.188;2023-03-23T15:03:53;80.50;;;41.13;;
26201;SDS011;13944;28.562;77.188;2023-03-23T15:06:22;80.80;;;43.35;;
26201;SDS011;13944;28.562;77.188;2023-03-23T15:08:49;93.30;;;43.58;;
26201;SDS011;13944;28.562;77.188;2023-03-23T15:13:44;100.18;;;47.00;;
26201;SDS011;13944;28.562;77.188;2023-03-23T15:16:13;95.13;;;47.38;;
26201;SDS011;13944;28.562;77.188;2023-03-23T15:18:40;106.07;;;52.67;;
26201;SDS011;13944;28.562;77.188;2023-03-23T15:21:32;98.68;;;53.03;;
26201;SDS011;13944;28.562;77.188;2023-03-23T15:24:17;96.72;;;51.67;;
26201;SDS011;13944;28.562;77.188;2023-03-23T15:26:45;95.25;;;51.75;;
26201;SDS011;13944;28.562;77.188;2023-03-23T15:29:13;98.10;;;55.28;;
26201;SDS011;13944;28.562;77.188;2023-03-23T15:31:42;115.80;;;56.72;;
26201;SDS011;13944;28.562;77.188;2023-03-23T15:34:50;113.65;;;58.05;;
26201;SDS011;13944;28.562;77.188;2023-03-23T15:36:59;108.63;;;59.67;;
26201;SDS011;13944;28.562;77.188;2023-03-23T15:39:26;122.25;;;60.53;;
26201;SDS011;13944;28.562;77.188;2023-03-23T15:41:53;125.63;;;64.45;;
26201;SDS011;13944;28.562;77.188;2023-03-23T15:44:31;121.35;;;59.45;;
26201;SDS011;13944;28.562;77.188;2023-03-23T15:49:36;106.07;;;55.20;;
26201;SDS011;13944;28.562;77.188;2023-03-23T15:52:03;117.10;;;56.90;;
26201;SDS011;13944;28.562;77.188;2023-03-23T15:54:30;118.03;;;60.80;;
26201;SDS011;13944;28.562;77.188;2023-03-23T15:56:57;120.18;;;61.45;;
26201;SDS011;13944;28.562;77.188;2023-03-23T15:59:24;116.53;;;61.13;;
26201;SDS011;13944;28.562;77.188;2023-03-23T16:01:50;130.10;;;63.85;;
26201;SDS011;13944;28.562;77.188;2023-03-23T16:04:17;130.35;;;65.28;;